Pagina principale
METAR-TAF:

METAR-TAF

Aeroporti :

Aeroporto di Nizza Costa Azzurra

Nizza, Francia

latitudine: 43-39N, longitudine: 007-12E, altezza: 4 m

Osservazione

Il bollettino è stato emesso 24 minuti fa, alle 03:00 UTC
Vento 8 kt da nord/nord-ovest
Temperature 9°C
Umidità 81%
Pressione 1022 hPa
Visibilità 10 km o più
Poco nuvoloso ad un'altezza di 1600 ft

METAR: LFMN 240300Z 33008KT 9999 FEW016 09/06 Q1022 NOSIG

Ora: 04:24 (03:24 UTC)

Previsione

Il bollettino è stato emesso 1 ora e 24 minuti fa, alle 02:00 UTC
Previsione valida dal 24 alle 03 UTC al 25 alle 09 UTC
Vento 7 kt da nord
Visibilità 10 km o più
Poco nuvoloso ad un'altezza di 1400 ft
Probabilità 40% :
Temporaneamente
dal 24 alle 03 UTC al 25 alle 09 UTC
Nuvoloso ad un'altezza di 1000 ft

TAF: LFMN 240200Z 2403/2509 36007KT 9999 FEW014 PROB40 TEMPO 2403/2509 BKN010

Osservazioni e previsioni meteorologiche di più di 4000 aeroporti (messaggi METAR e TAF).

Le stazioni disponibili sono rappresentate dai dischi gialli e rossi sulla carta.

Puntare il mouse per vedere il nome della stazione.

Clicca sopra per visualizzare le osservazioni e previsioni meteorologiche.

Per cambiare la mappa : fare clic sui pulsanti verdi con una croce nera per ingrandire, il pulsante verde con un trattino per diminuire, o sulla freccia verde per le mappe adiacenti.


METAR-TAF: